BAW71K EGKK-EDDF
Flight info
| Callsign | BAW71K |
|---|---|
| Flight time | 1h 2m |
| Altitude | 39000 |
| Route | MIMFO Y312 DVR UL9 KONAN UL607 SPI T180 NIVNU/N0418F230 T847 IMCOM IMCOM1D |
| Aircraft | E195/M-SDE3GILORVW/S |
Departure
| Time | 2026-04-14 15:39 |
|---|---|
| Airport | London Gatwick Airport (EGKK) |
Arrival
| Time | 2026-04-14 16:42 |
|---|---|
| Airport | Frankfurt Main Airport (EDDF) |
| Time | Latitude | Longitude | Altitude | Speed | Heading |
|---|---|---|---|---|---|
| 2026-04-14 15:16 | 51.15525 | -0.16659 | 195 ft | 0 kts | 347° |
| 2026-04-14 15:24 | 51.15523 | -0.16658 | 195 ft | 1 kts | 347° |
| 2026-04-14 15:24 | 51.15509 | -0.16653 | 195 ft | 2 kts | 346° |
| 2026-04-14 15:25 | 51.15496 | -0.16648 | 195 ft | 0 kts | 347° |
| 2026-04-14 15:25 | 51.15485 | -0.16643 | 195 ft | 2 kts | 327° |
| 2026-04-14 15:25 | 51.15474 | -0.16626 | 195 ft | 2 kts | 304° |
| 2026-04-14 15:25 | 51.15468 | -0.16605 | 196 ft | 2 kts | 279° |
| 2026-04-14 15:26 | 51.15467 | -0.16587 | 196 ft | 0 kts | 261° |
| 2026-04-14 15:26 | 51.15469 | -0.16575 | 196 ft | 0 kts | 258° |
| 2026-04-14 15:31 | 51.15469 | -0.16577 | 196 ft | 0 kts | 258° |
| 2026-04-14 15:32 | 51.15465 | -0.16607 | 196 ft | 4 kts | 258° |
| 2026-04-14 15:32 | 51.15456 | -0.16675 | 193 ft | 5 kts | 255° |
| 2026-04-14 15:32 | 51.15425 | -0.16719 | 191 ft | 7 kts | 187° |
| 2026-04-14 15:32 | 51.15369 | -0.16705 | 191 ft | 8 kts | 168° |
| 2026-04-14 15:33 | 51.15327 | -0.16684 | 191 ft | 3 kts | 162° |
| 2026-04-14 15:33 | 51.15320 | -0.16680 | 191 ft | 0 kts | 165° |
| 2026-04-14 15:33 | 51.15316 | -0.16679 | 191 ft | 1 kts | 166° |
| 2026-04-14 15:33 | 51.15300 | -0.16673 | 191 ft | 3 kts | 166° |
| 2026-04-14 15:34 | 51.15275 | -0.16663 | 191 ft | 3 kts | 167° |
| 2026-04-14 15:34 | 51.15248 | -0.16654 | 192 ft | 4 kts | 168° |
| 2026-04-14 15:34 | 51.15241 | -0.16652 | 192 ft | 0 kts | 168° |
| 2026-04-14 15:37 | 51.15239 | -0.16651 | 192 ft | 1 kts | 168° |
| 2026-04-14 15:37 | 51.15221 | -0.16645 | 192 ft | 3 kts | 167° |
| 2026-04-14 15:37 | 51.15185 | -0.16633 | 193 ft | 6 kts | 173° |
| 2026-04-14 15:38 | 51.15142 | -0.16660 | 192 ft | 6 kts | 243° |
| 2026-04-14 15:38 | 51.15136 | -0.16691 | 191 ft | 0 kts | 257° |
| 2026-04-14 15:38 | 51.15136 | -0.16692 | 191 ft | 1 kts | 257° |
| 2026-04-14 15:38 | 51.15090 | -0.17030 | 185 ft | 71 kts | 258° |
| 2026-04-14 15:39 | 51.14934 | -0.18162 | 195 ft | 136 kts | 257° |
| 2026-04-14 15:39 | 51.14715 | -0.19834 | 463 ft | 164 kts | 256° |
| 2026-04-14 15:39 | 51.14485 | -0.21668 | 960 ft | 173 kts | 255° |
| 2026-04-14 15:39 | 51.14409 | -0.23564 | 867 ft | 175 kts | 286° |
| 2026-04-14 15:40 | 51.15197 | -0.25078 | 1161 ft | 194 kts | 333° |
| 2026-04-14 15:40 | 51.16532 | -0.25339 | 1760 ft | 208 kts | 17° |
| 2026-04-14 15:40 | 51.17841 | -0.24147 | 2163 ft | 228 kts | 43° |
| 2026-04-14 15:40 | 51.19072 | -0.22517 | 2837 ft | 238 kts | 42° |
| 2026-04-14 15:41 | 51.20246 | -0.20764 | 3581 ft | 228 kts | 64° |
| 2026-04-14 15:41 | 51.20683 | -0.18431 | 4370 ft | 223 kts | 85° |
| 2026-04-14 15:41 | 51.20958 | -0.15973 | 5002 ft | 236 kts | 83° |
| 2026-04-14 15:41 | 51.21281 | -0.13320 | 5599 ft | 252 kts | 82° |
| 2026-04-14 15:42 | 51.21634 | -0.10528 | 6145 ft | 269 kts | 81° |
| 2026-04-14 15:42 | 51.22025 | -0.07489 | 6706 ft | 285 kts | 81° |
| 2026-04-14 15:42 | 51.22432 | -0.04363 | 7233 ft | 290 kts | 81° |
| 2026-04-14 15:42 | 51.22840 | -0.01218 | 7754 ft | 291 kts | 80° |
| 2026-04-14 15:43 | 51.23251 | 0.01944 | 8357 ft | 290 kts | 80° |
| 2026-04-14 15:43 | 51.23658 | 0.05088 | 9002 ft | 293 kts | 80° |
| 2026-04-14 15:43 | 51.24066 | 0.08246 | 9641 ft | 294 kts | 80° |
| 2026-04-14 15:43 | 51.24479 | 0.11445 | 10284 ft | 299 kts | 80° |
| 2026-04-14 15:44 | 51.24898 | 0.14707 | 10931 ft | 309 kts | 79° |
| 2026-04-14 15:44 | 51.25335 | 0.18119 | 11590 ft | 318 kts | 80° |
| 2026-04-14 15:44 | 51.25338 | 0.21666 | 12261 ft | 329 kts | 98° |
| 2026-04-14 15:44 | 51.25078 | 0.25341 | 13064 ft | 338 kts | 97° |
| 2026-04-14 15:45 | 51.24850 | 0.29059 | 13984 ft | 343 kts | 96° |
| 2026-04-14 15:45 | 51.24631 | 0.32868 | 14940 ft | 347 kts | 95° |
| 2026-04-14 15:45 | 51.24417 | 0.36674 | 15840 ft | 351 kts | 95° |
| 2026-04-14 15:45 | 51.24200 | 0.40557 | 16686 ft | 355 kts | 95° |
| 2026-04-14 15:46 | 51.23980 | 0.44475 | 17544 ft | 360 kts | 94° |
| 2026-04-14 15:46 | 51.23755 | 0.48465 | 18319 ft | 365 kts | 94° |
| 2026-04-14 15:46 | 51.23526 | 0.52499 | 19020 ft | 372 kts | 94° |
| 2026-04-14 15:46 | 51.23293 | 0.56590 | 19717 ft | 378 kts | 93° |
| 2026-04-14 15:47 | 51.23051 | 0.60798 | 20428 ft | 383 kts | 93° |
| 2026-04-14 15:47 | 51.22809 | 0.64994 | 21116 ft | 388 kts | 92° |
| 2026-04-14 15:47 | 51.22560 | 0.69294 | 21769 ft | 393 kts | 93° |
| 2026-04-14 15:47 | 51.22306 | 0.73638 | 22389 ft | 398 kts | 93° |
| 2026-04-14 15:48 | 51.22048 | 0.78019 | 22994 ft | 403 kts | 93° |
| 2026-04-14 15:48 | 51.21781 | 0.82512 | 23635 ft | 407 kts | 92° |
| 2026-04-14 15:48 | 51.21515 | 0.86978 | 24247 ft | 412 kts | 92° |
| 2026-04-14 15:48 | 51.21241 | 0.91551 | 24853 ft | 416 kts | 91° |
| 2026-04-14 15:49 | 51.20963 | 0.96144 | 25508 ft | 419 kts | 91° |
| 2026-04-14 15:49 | 51.20683 | 1.00749 | 26124 ft | 422 kts | 91° |
| 2026-04-14 15:49 | 51.20399 | 1.05381 | 26688 ft | 426 kts | 91° |
| 2026-04-14 15:49 | 51.20109 | 1.10093 | 27243 ft | 430 kts | 91° |
| 2026-04-14 15:50 | 51.19814 | 1.14846 | 27768 ft | 434 kts | 90° |
| 2026-04-14 15:50 | 51.19517 | 1.19605 | 28287 ft | 438 kts | 90° |
| 2026-04-14 15:50 | 51.19212 | 1.24457 | 28818 ft | 442 kts | 90° |
| 2026-04-14 15:50 | 51.18903 | 1.29340 | 29330 ft | 446 kts | 90° |
| 2026-04-14 15:51 | 51.18593 | 1.34200 | 29849 ft | 449 kts | 90° |
| 2026-04-14 15:51 | 51.18273 | 1.39192 | 30271 ft | 455 kts | 90° |
| 2026-04-14 15:51 | 51.17950 | 1.44193 | 30734 ft | 459 kts | 90° |
| 2026-04-14 15:51 | 51.17621 | 1.49265 | 31143 ft | 463 kts | 90° |
| 2026-04-14 15:52 | 51.17289 | 1.54325 | 31601 ft | 467 kts | 90° |
| 2026-04-14 15:52 | 51.16952 | 1.59439 | 32085 ft | 469 kts | 90° |
| 2026-04-14 15:52 | 51.16610 | 1.64576 | 32621 ft | 469 kts | 89° |
| 2026-04-14 15:52 | 51.16267 | 1.69715 | 33186 ft | 468 kts | 90° |
| 2026-04-14 15:53 | 51.15919 | 1.74885 | 33769 ft | 466 kts | 89° |
| 2026-04-14 15:53 | 51.15576 | 1.79948 | 34296 ft | 466 kts | 89° |
| 2026-04-14 15:53 | 51.15229 | 1.85043 | 34839 ft | 464 kts | 89° |
| 2026-04-14 15:53 | 51.14881 | 1.90110 | 35350 ft | 463 kts | 89° |
| 2026-04-14 15:54 | 51.14177 | 2.00289 | 36240 ft | 464 kts | 89° |
| 2026-04-14 15:54 | 51.13823 | 2.05345 | 36723 ft | 465 kts | 89° |
| 2026-04-14 15:54 | 51.13468 | 2.10396 | 37279 ft | 465 kts | 89° |
| 2026-04-14 15:55 | 51.13105 | 2.15534 | 37823 ft | 465 kts | 89° |
| 2026-04-14 15:55 | 51.12742 | 2.20610 | 38313 ft | 465 kts | 89° |
| 2026-04-14 15:55 | 51.12377 | 2.25700 | 38825 ft | 466 kts | 89° |
| 2026-04-14 15:55 | 51.12011 | 2.30794 | 39021 ft | 472 kts | 89° |
| 2026-04-14 15:56 | 51.11634 | 2.35997 | 39049 ft | 481 kts | 89° |
| 2026-04-14 15:56 | 51.10848 | 2.46702 | 39046 ft | 492 kts | 90° |
| 2026-04-14 15:57 | 51.10051 | 2.57432 | 39041 ft | 489 kts | 90° |
| 2026-04-14 15:57 | 51.08914 | 2.68085 | 39045 ft | 497 kts | 99° |
| 2026-04-14 15:58 | 51.07035 | 2.78642 | 39038 ft | 495 kts | 100° |
| 2026-04-14 15:58 | 51.05135 | 2.89103 | 39040 ft | 495 kts | 100° |
| 2026-04-14 15:59 | 51.03232 | 2.99516 | 39035 ft | 495 kts | 100° |
| 2026-04-14 15:59 | 51.01304 | 3.10004 | 39027 ft | 494 kts | 100° |
| 2026-04-14 16:00 | 50.99377 | 3.20425 | 39033 ft | 493 kts | 101° |
| 2026-04-14 16:00 | 50.97451 | 3.30785 | 39039 ft | 493 kts | 101° |
| 2026-04-14 16:01 | 50.95509 | 3.41171 | 39041 ft | 491 kts | 101° |
| 2026-04-14 16:01 | 50.93567 | 3.51503 | 39048 ft | 492 kts | 101° |
| 2026-04-14 16:02 | 50.91618 | 3.61814 | 39040 ft | 490 kts | 101° |
| 2026-04-14 16:02 | 50.89645 | 3.72108 | 39047 ft | 489 kts | 102° |
| 2026-04-14 16:03 | 50.87658 | 3.82397 | 39048 ft | 488 kts | 102° |
| 2026-04-14 16:03 | 50.85686 | 3.92552 | 39049 ft | 486 kts | 102° |
| 2026-04-14 16:04 | 50.83696 | 4.02753 | 39057 ft | 485 kts | 102° |
| 2026-04-14 16:04 | 50.81706 | 4.12894 | 39054 ft | 487 kts | 102° |
| 2026-04-14 16:05 | 50.79703 | 4.23047 | 39054 ft | 486 kts | 102° |
| 2026-04-14 16:05 | 50.77698 | 4.33160 | 39048 ft | 486 kts | 102° |
| 2026-04-14 16:06 | 50.75674 | 4.43317 | 39057 ft | 485 kts | 102° |
| 2026-04-14 16:06 | 50.73644 | 4.53444 | 39089 ft | 484 kts | 103° |
| 2026-04-14 16:07 | 50.71631 | 4.63575 | 39064 ft | 483 kts | 102° |
| 2026-04-14 16:07 | 50.69678 | 4.73676 | 39063 ft | 482 kts | 103° |
| 2026-04-14 16:08 | 50.67713 | 4.83768 | 39059 ft | 482 kts | 103° |
| 2026-04-14 16:08 | 50.65738 | 4.93777 | 39057 ft | 483 kts | 104° |
| 2026-04-14 16:09 | 50.63681 | 5.03797 | 39036 ft | 480 kts | 104° |
| 2026-04-14 16:09 | 50.62663 | 5.08733 | 39049 ft | 465 kts | 103° |
| 2026-04-14 16:09 | 50.61664 | 5.13586 | 39053 ft | 462 kts | 103° |
| 2026-04-14 16:10 | 50.59689 | 5.23132 | 38939 ft | 465 kts | 103° |
| 2026-04-14 16:10 | 50.58682 | 5.27978 | 38420 ft | 467 kts | 103° |
| 2026-04-14 16:10 | 50.57679 | 5.32793 | 37924 ft | 464 kts | 103° |
| 2026-04-14 16:10 | 50.56676 | 5.37598 | 37416 ft | 462 kts | 103° |
| 2026-04-14 16:11 | 50.55683 | 5.42344 | 36912 ft | 462 kts | 103° |
| 2026-04-14 16:11 | 50.54680 | 5.47129 | 36372 ft | 462 kts | 103° |
| 2026-04-14 16:11 | 50.53674 | 5.51906 | 35922 ft | 463 kts | 102° |
| 2026-04-14 16:11 | 50.52661 | 5.56721 | 35411 ft | 467 kts | 102° |
| 2026-04-14 16:12 | 50.51644 | 5.61531 | 34895 ft | 467 kts | 102° |
| 2026-04-14 16:12 | 50.50708 | 5.66400 | 34377 ft | 466 kts | 100° |
| 2026-04-14 16:12 | 50.49810 | 5.71259 | 33834 ft | 467 kts | 101° |
| 2026-04-14 16:12 | 50.48896 | 5.76162 | 33306 ft | 467 kts | 101° |
| 2026-04-14 16:13 | 50.47974 | 5.81088 | 32790 ft | 468 kts | 100° |
| 2026-04-14 16:13 | 50.47068 | 5.85909 | 32271 ft | 466 kts | 101° |
| 2026-04-14 16:13 | 50.46149 | 5.90791 | 31757 ft | 465 kts | 101° |
| 2026-04-14 16:13 | 50.45235 | 5.95634 | 31235 ft | 466 kts | 100° |
| 2026-04-14 16:14 | 50.44312 | 6.00509 | 30718 ft | 464 kts | 101° |
| 2026-04-14 16:14 | 50.43406 | 6.05280 | 30208 ft | 459 kts | 101° |
| 2026-04-14 16:14 | 50.42499 | 6.10047 | 29704 ft | 454 kts | 101° |
| 2026-04-14 16:14 | 50.41610 | 6.14711 | 29209 ft | 450 kts | 101° |
| 2026-04-14 16:15 | 50.40710 | 6.19418 | 28713 ft | 446 kts | 101° |
| 2026-04-14 16:15 | 50.39829 | 6.24014 | 28225 ft | 441 kts | 102° |
| 2026-04-14 16:15 | 50.38958 | 6.28545 | 27741 ft | 436 kts | 102° |
| 2026-04-14 16:15 | 50.38085 | 6.33080 | 27265 ft | 432 kts | 102° |
| 2026-04-14 16:16 | 50.37218 | 6.37557 | 26783 ft | 428 kts | 102° |
| 2026-04-14 16:16 | 50.36431 | 6.42023 | 26299 ft | 420 kts | 94° |
| 2026-04-14 16:16 | 50.36115 | 6.46476 | 25865 ft | 416 kts | 91° |
| 2026-04-14 16:16 | 50.35838 | 6.50988 | 25394 ft | 413 kts | 91° |
| 2026-04-14 16:17 | 50.35561 | 6.55386 | 24946 ft | 411 kts | 92° |
| 2026-04-14 16:17 | 50.34938 | 6.59725 | 24501 ft | 413 kts | 110° |
| 2026-04-14 16:17 | 50.33839 | 6.63906 | 24047 ft | 410 kts | 107° |
| 2026-04-14 16:17 | 50.32878 | 6.68118 | 23589 ft | 406 kts | 107° |
| 2026-04-14 16:18 | 50.31974 | 6.72288 | 23137 ft | 403 kts | 106° |
| 2026-04-14 16:18 | 50.31090 | 6.76422 | 22703 ft | 399 kts | 106° |
| 2026-04-14 16:18 | 50.30209 | 6.80562 | 22259 ft | 396 kts | 106° |
| 2026-04-14 16:18 | 50.29340 | 6.84642 | 21825 ft | 394 kts | 106° |
| 2026-04-14 16:19 | 50.28482 | 6.88668 | 21392 ft | 392 kts | 106° |
| 2026-04-14 16:19 | 50.27624 | 6.92685 | 20969 ft | 389 kts | 107° |
| 2026-04-14 16:19 | 50.26763 | 6.96704 | 20536 ft | 386 kts | 107° |
| 2026-04-14 16:19 | 50.25906 | 7.00702 | 20112 ft | 384 kts | 107° |
| 2026-04-14 16:20 | 50.25069 | 7.04602 | 19695 ft | 381 kts | 107° |
| 2026-04-14 16:20 | 50.24220 | 7.08545 | 19273 ft | 378 kts | 107° |
| 2026-04-14 16:20 | 50.23389 | 7.12399 | 18859 ft | 376 kts | 107° |
| 2026-04-14 16:20 | 50.22556 | 7.16252 | 18443 ft | 373 kts | 107° |
| 2026-04-14 16:21 | 50.21729 | 7.20071 | 18031 ft | 370 kts | 107° |
| 2026-04-14 16:21 | 50.20909 | 7.23850 | 17627 ft | 368 kts | 107° |
| 2026-04-14 16:21 | 50.20092 | 7.27613 | 17221 ft | 366 kts | 107° |
| 2026-04-14 16:21 | 50.19279 | 7.31347 | 16819 ft | 363 kts | 107° |
| 2026-04-14 16:22 | 50.18467 | 7.35067 | 16419 ft | 361 kts | 107° |
| 2026-04-14 16:22 | 50.17664 | 7.38747 | 16023 ft | 358 kts | 107° |
| 2026-04-14 16:22 | 50.16862 | 7.42409 | 15634 ft | 355 kts | 107° |
| 2026-04-14 16:22 | 50.16077 | 7.45990 | 15247 ft | 352 kts | 107° |
| 2026-04-14 16:23 | 50.15281 | 7.49617 | 14868 ft | 350 kts | 107° |
| 2026-04-14 16:23 | 50.14504 | 7.53145 | 14470 ft | 348 kts | 107° |
| 2026-04-14 16:23 | 50.13715 | 7.56727 | 14080 ft | 346 kts | 107° |
| 2026-04-14 16:23 | 50.12945 | 7.60213 | 13708 ft | 343 kts | 107° |
| 2026-04-14 16:24 | 50.12180 | 7.63671 | 13332 ft | 332 kts | 107° |
| 2026-04-14 16:24 | 50.11432 | 7.67047 | 12960 ft | 322 kts | 108° |
| 2026-04-14 16:24 | 50.10761 | 7.70318 | 12649 ft | 311 kts | 105° |
| 2026-04-14 16:24 | 50.10146 | 7.73489 | 12319 ft | 302 kts | 105° |
| 2026-04-14 16:25 | 50.09544 | 7.76586 | 11982 ft | 295 kts | 105° |
| 2026-04-14 16:25 | 50.08958 | 7.79592 | 11686 ft | 286 kts | 106° |
| 2026-04-14 16:25 | 50.08387 | 7.82523 | 11389 ft | 279 kts | 106° |
| 2026-04-14 16:25 | 50.07987 | 7.85429 | 11079 ft | 271 kts | 86° |
| 2026-04-14 16:26 | 50.08421 | 7.88192 | 10827 ft | 261 kts | 69° |
| 2026-04-14 16:26 | 50.09046 | 7.90843 | 10536 ft | 257 kts | 69° |
| 2026-04-14 16:26 | 50.09669 | 7.93435 | 10238 ft | 258 kts | 69° |
| 2026-04-14 16:26 | 50.10310 | 7.96076 | 9905 ft | 258 kts | 69° |
| 2026-04-14 16:27 | 50.10943 | 7.98679 | 9576 ft | 257 kts | 68° |
| 2026-04-14 16:27 | 50.11578 | 8.01281 | 9242 ft | 254 kts | 68° |
| 2026-04-14 16:27 | 50.12194 | 8.03810 | 8909 ft | 251 kts | 68° |
| 2026-04-14 16:27 | 50.12815 | 8.06357 | 8577 ft | 248 kts | 68° |
| 2026-04-14 16:28 | 50.13421 | 8.08847 | 8240 ft | 245 kts | 68° |
| 2026-04-14 16:28 | 50.14028 | 8.11343 | 7904 ft | 243 kts | 68° |
| 2026-04-14 16:28 | 50.14625 | 8.13801 | 7569 ft | 241 kts | 68° |
| 2026-04-14 16:28 | 50.15213 | 8.16220 | 7236 ft | 239 kts | 68° |
| 2026-04-14 16:29 | 50.15797 | 8.18632 | 6897 ft | 237 kts | 68° |
| 2026-04-14 16:29 | 50.16370 | 8.20996 | 6573 ft | 234 kts | 68° |
| 2026-04-14 16:29 | 50.16945 | 8.23374 | 6247 ft | 232 kts | 68° |
| 2026-04-14 16:29 | 50.17513 | 8.25723 | 5910 ft | 231 kts | 68° |
| 2026-04-14 16:30 | 50.18083 | 8.28082 | 5569 ft | 229 kts | 66° |
| 2026-04-14 16:30 | 50.18675 | 8.30347 | 5240 ft | 228 kts | 71° |
| 2026-04-14 16:30 | 50.18642 | 8.32767 | 5030 ft | 230 kts | 112° |
| 2026-04-14 16:30 | 50.17531 | 8.34586 | 5037 ft | 239 kts | 153° |
| 2026-04-14 16:31 | 50.15942 | 8.35400 | 5031 ft | 243 kts | 163° |
| 2026-04-14 16:31 | 50.14297 | 8.36094 | 4867 ft | 246 kts | 163° |
| 2026-04-14 16:31 | 50.12584 | 8.36075 | 4606 ft | 246 kts | 202° |
| 2026-04-14 16:31 | 50.11292 | 8.34432 | 4480 ft | 243 kts | 242° |
| 2026-04-14 16:32 | 50.10670 | 8.32024 | 4355 ft | 242 kts | 253° |
| 2026-04-14 16:32 | 50.10142 | 8.29542 | 4177 ft | 242 kts | 253° |
| 2026-04-14 16:32 | 50.09613 | 8.27045 | 4021 ft | 240 kts | 253° |
| 2026-04-14 16:32 | 50.09098 | 8.24623 | 4032 ft | 237 kts | 253° |
| 2026-04-14 16:33 | 50.08577 | 8.22175 | 4048 ft | 239 kts | 253° |
| 2026-04-14 16:33 | 50.08047 | 8.19709 | 4009 ft | 238 kts | 253° |
| 2026-04-14 16:33 | 50.07525 | 8.17266 | 4000 ft | 238 kts | 253° |
| 2026-04-14 16:33 | 50.07006 | 8.14846 | 3999 ft | 238 kts | 253° |
| 2026-04-14 16:34 | 50.06486 | 8.12409 | 4000 ft | 237 kts | 253° |
| 2026-04-14 16:34 | 50.05609 | 8.10272 | 3981 ft | 240 kts | 218° |
| 2026-04-14 16:34 | 50.04046 | 8.09449 | 4001 ft | 238 kts | 177° |
| 2026-04-14 16:34 | 50.02446 | 8.09950 | 4018 ft | 237 kts | 163° |
| 2026-04-14 16:35 | 50.00847 | 8.10609 | 3999 ft | 236 kts | 163° |
| 2026-04-14 16:35 | 49.99320 | 8.11467 | 3971 ft | 233 kts | 142° |
| 2026-04-14 16:35 | 49.98404 | 8.13454 | 4007 ft | 228 kts | 107° |
| 2026-04-14 16:35 | 49.97953 | 8.15819 | 4012 ft | 228 kts | 103° |
| 2026-04-14 16:36 | 49.97516 | 8.18195 | 4009 ft | 228 kts | 103° |
| 2026-04-14 16:36 | 49.97078 | 8.20562 | 4009 ft | 226 kts | 103° |
| 2026-04-14 16:36 | 49.96655 | 8.22825 | 3986 ft | 208 kts | 103° |
| 2026-04-14 16:36 | 49.96415 | 8.24901 | 3956 ft | 186 kts | 83° |
| 2026-04-14 16:37 | 49.96532 | 8.26800 | 3855 ft | 173 kts | 82° |
| 2026-04-14 16:37 | 49.96771 | 8.28580 | 3641 ft | 165 kts | 67° |
| 2026-04-14 16:37 | 49.97169 | 8.30223 | 3436 ft | 160 kts | 67° |
| 2026-04-14 16:37 | 49.97556 | 8.31845 | 3232 ft | 159 kts | 67° |
| 2026-04-14 16:38 | 49.97941 | 8.33427 | 3029 ft | 159 kts | 67° |
| 2026-04-14 16:38 | 49.98338 | 8.35061 | 2818 ft | 160 kts | 68° |
| 2026-04-14 16:38 | 49.98724 | 8.36666 | 2601 ft | 158 kts | 68° |
| 2026-04-14 16:38 | 49.99107 | 8.38262 | 2386 ft | 158 kts | 67° |
| 2026-04-14 16:39 | 49.99500 | 8.39875 | 2171 ft | 158 kts | 68° |
| 2026-04-14 16:39 | 49.99884 | 8.41474 | 1956 ft | 158 kts | 68° |
| 2026-04-14 16:39 | 50.00267 | 8.43079 | 1741 ft | 157 kts | 67° |
| 2026-04-14 16:39 | 50.00651 | 8.44655 | 1524 ft | 154 kts | 68° |
| 2026-04-14 16:40 | 50.01000 | 8.46119 | 1343 ft | 137 kts | 68° |
| 2026-04-14 16:40 | 50.01320 | 8.47446 | 1145 ft | 128 kts | 67° |
| 2026-04-14 16:40 | 50.01637 | 8.48769 | 986 ft | 130 kts | 68° |
| 2026-04-14 16:40 | 50.01957 | 8.50078 | 823 ft | 131 kts | 68° |
| 2026-04-14 16:41 | 50.02284 | 8.51420 | 632 ft | 131 kts | 69° |
| 2026-04-14 16:41 | 50.02593 | 8.52738 | 460 ft | 130 kts | 68° |
| 2026-04-14 16:41 | 50.02907 | 8.54050 | 331 ft | 126 kts | 69° |
| 2026-04-14 16:41 | 50.03161 | 8.55118 | 333 ft | 82 kts | 69° |
| 2026-04-14 16:42 | 50.03309 | 8.55736 | 335 ft | 40 kts | 69° |
| 2026-04-14 16:42 | 50.03397 | 8.56094 | 337 ft | 34 kts | 64° |
| 2026-04-14 16:42 | 50.03507 | 8.56329 | 341 ft | 25 kts | 42° |
| 2026-04-14 16:42 | 50.03640 | 8.56504 | 343 ft | 23 kts | 40° |
| 2026-04-14 16:43 | 50.03763 | 8.56668 | 346 ft | 22 kts | 47° |
| 2026-04-14 16:43 | 50.03830 | 8.56887 | 348 ft | 22 kts | 69° |
| 2026-04-14 16:43 | 50.03883 | 8.57109 | 351 ft | 21 kts | 69° |
| 2026-04-14 16:43 | 50.03934 | 8.57323 | 354 ft | 21 kts | 69° |
| 2026-04-14 16:44 | 50.03985 | 8.57536 | 357 ft | 20 kts | 69° |
| 2026-04-14 16:44 | 50.04036 | 8.57748 | 362 ft | 20 kts | 69° |
| 2026-04-14 16:44 | 50.04088 | 8.57964 | 364 ft | 21 kts | 69° |
| 2026-04-14 16:45 | 50.04202 | 8.58438 | 365 ft | 26 kts | 69° |
| 2026-04-14 16:45 | 50.04268 | 8.58713 | 363 ft | 27 kts | 69° |
| 2026-04-14 16:45 | 50.04334 | 8.58986 | 363 ft | 26 kts | 69° |
| 2026-04-14 16:45 | 50.04396 | 8.59244 | 364 ft | 21 kts | 69° |
| 2026-04-14 16:46 | 50.04439 | 8.59417 | 365 ft | 15 kts | 65° |
| 2026-04-14 16:46 | 50.04530 | 8.59470 | 366 ft | 16 kts | 357° |
| 2026-04-14 16:46 | 50.04652 | 8.59459 | 363 ft | 18 kts | 351° |
| 2026-04-14 16:46 | 50.04768 | 8.59403 | 362 ft | 4 kts | 339° |
| 2026-04-14 16:47 | 50.04770 | 8.59402 | 362 ft | 0 kts | 340° |
| 2026-04-14 16:47 | 50.04771 | 8.59401 | 362 ft | 1 kts | 340° |
| 2026-04-14 16:47 | 50.04793 | 8.59389 | 361 ft | 5 kts | 340° |
| 2026-04-14 16:47 | 50.04843 | 8.59362 | 361 ft | 9 kts | 342° |
| 2026-04-14 16:48 | 50.04906 | 8.59372 | 364 ft | 9 kts | 11° |
| 2026-04-14 16:48 | 50.04972 | 8.59352 | 366 ft | 10 kts | 339° |
| 2026-04-14 16:48 | 50.05043 | 8.59311 | 369 ft | 11 kts | 334° |
| 2026-04-14 16:48 | 50.05078 | 8.59215 | 371 ft | 11 kts | 262° |
| 2026-04-14 16:49 | 50.05047 | 8.59078 | 371 ft | 14 kts | 249° |
| 2026-04-14 16:49 | 50.05014 | 8.58939 | 372 ft | 11 kts | 250° |
| 2026-04-14 16:49 | 50.04986 | 8.58820 | 373 ft | 6 kts | 249° |
| 2026-04-14 16:49 | 50.04982 | 8.58805 | 373 ft | 2 kts | 250° |
| 2026-04-14 16:50 | 50.04969 | 8.58772 | 373 ft | 5 kts | 212° |
| 2026-04-14 16:50 | 50.04929 | 8.58780 | 370 ft | 6 kts | 159° |
| 2026-04-14 16:50 | 50.04901 | 8.58796 | 368 ft | 1 kts | 159° |
| 2026-04-14 16:50 | 50.04900 | 8.58797 | 368 ft | 0 kts | 159° |